KATT

Austin City Airport

Austin, Texas, USA
METAR KATT 172051Z AUTO VRB04KT 10SM OVC023 17/09 A3011 RMK AO2 SLP195 T01670094 56007 $
Observed Flight Rules
Feb-17 @ 20:51 UTC (39 minutes ago) Marginal Visual Flight Rules
Wind Visibility Clouds
Variable at 4 knots 10 miles
  • Overcast at 2,300' AGL
Temperatures Readings
Current 17°C / 63°F
Dewpoint 9°C / 48°F
Humidity 59%
Altimeter 30.11" Hg
Pressure 1019.5 hPa
Elevation 201
METAR KATT 172051Z AUTO VRB04KT 10SM OVC023 17/09 A3011 RMK AO2 SLP195 T01670094 56007 $
Observed Flight Rules
Feb-17 @ 20:51 UTC
(39 minutes ago)
MVFR
Wind Visibility
Variable at 4 knots 10 miles
Clouds
  • Overcast at 2,300' AGL
Temperature Dewpoint
17°C / 63°F 9°C / 48°F
Humidity Altimeter Pressure
59% 30.11" Hg 1019.5 hPa